Time;durP1;ratioP1;P1;durP2;ratioP2;P2;SDS_P1;SDS_P2;PMS_P1;PMS_P2;Temp;Humidity;BMP_temperature;BMP_pressure;BME280_temperature;BME280_humidity;BME280_pressure;Samples;Min_cycle;Max_cycle;Signal;HPM_P1;HPM_P2
2023/10/17 00:02:11;;;;;;;1.75;1.20;;;16.90;87.40;;;;;;4975789;28;20072;-81
2023/10/17 00:04:40;;;;;;;1.83;1.20;;;16.80;87.40;;;;;;4975339;28;20030;-80
2023/10/17 00:07:08;;;;;;;4.28;1.30;;;16.80;87.40;;;;;;4975357;28;20109;-81
2023/10/17 00:09:37;;;;;;;3.15;1.20;;;16.80;87.40;;;;;;4993009;28;20026;-81
2023/10/17 00:12:22;;;;;;;2.30;1.10;;;16.80;87.50;;;;;;4975653;28;20105;-82
2023/10/17 00:17:19;;;;;;;2.75;1.40;;;16.80;87.50;;;;;;4992945;28;20027;-81
2023/10/17 00:19:45;;;;;;;2.70;1.20;;;16.80;87.40;;;;;;4975563;28;20507;-81
2023/10/17 00:22:18;;;;;;;2.13;1.23;;;16.80;87.40;;;;;;4975576;28;20385;-81
2023/10/17 00:24:46;;;;;;;2.28;1.23;;;16.90;87.40;;;;;;4975241;28;20506;-81
2023/10/17 00:27:13;;;;;;;1.95;1.20;;;16.90;87.20;;;;;;4975543;28;20656;-81
2023/10/17 00:29:38;;;;;;;2.78;1.38;;;16.90;87.10;;;;;;4992830;28;20019;-81
2023/10/17 00:32:04;;;;;;;1.67;1.15;;;16.90;87.00;;;;;;4992799;28;20097;-81
2023/10/17 00:34:30;;;;;;;1.65;1.13;;;16.90;86.90;;;;;;4975268;28;20126;-81
2023/10/17 00:39:36;;;;;;;2.22;1.20;;;16.90;86.90;;;;;;4996885;28;20027;-81
2023/10/17 00:44:33;;;;;;;1.90;1.30;;;16.90;87.10;;;;;;4996542;28;20030;-81
2023/10/17 00:47:02;;;;;;;1.73;1.10;;;16.80;87.00;;;;;;4978942;28;20100;-81
2023/10/17 00:49:33;;;;;;;2.45;1.30;;;16.80;87.10;;;;;;4996287;28;20049;-82
2023/10/17 00:52:03;;;;;;;2.17;1.25;;;16.80;87.10;;;;;;4996316;28;20018;-81
2023/10/17 00:54:31;;;;;;;1.95;1.20;;;16.80;87.20;;;;;;4978690;28;20042;-82
2023/10/17 00:57:00;;;;;;;2.55;1.30;;;16.80;87.30;;;;;;4996289;28;20049;-81
2023/10/17 00:59:32;;;;;;;2.45;1.38;;;16.80;87.30;;;;;;4978968;28;20022;-81
2023/10/17 01:02:06;;;;;;;2.03;1.27;;;16.80;87.30;;;;;;4978555;28;20057;-81
2023/10/17 01:04:33;;;;;;;1.67;1.10;;;16.80;87.30;;;;;;4995773;28;20109;-82
2023/10/17 01:07:05;;;;;;;2.17;1.30;;;16.80;87.40;;;;;;4978335;28;20029;-81
2023/10/17 01:09:34;;;;;;;2.00;1.20;;;16.80;87.40;;;;;;4978614;28;20026;-82
2023/10/17 01:12:01;;;;;;;1.70;1.25;;;16.80;87.50;;;;;;4996079;28;20021;-82
2023/10/17 01:14:27;;;;;;;2.00;1.20;;;16.80;87.40;;;;;;4978069;28;20034;-82
2023/10/17 01:16:53;;;;;;;1.65;1.20;;;16.80;87.50;;;;;;4995997;28;20023;-81
2023/10/17 01:19:20;;;;;;;1.83;1.20;;;16.80;87.50;;;;;;4978381;28;20034;-82
2023/10/17 01:21:46;;;;;;;2.03;1.40;;;16.70;87.40;;;;;;4978453;28;20030;-81
2023/10/17 01:24:12;;;;;;;2.13;1.20;;;16.80;87.50;;;;;;4978127;28;20696;-82
2023/10/17 01:26:38;;;;;;;1.30;1.05;;;16.80;87.50;;;;;;4978245;28;20018;-81
2023/10/17 01:29:06;;;;;;;1.70;1.30;;;16.80;87.40;;;;;;4995850;28;20392;-81
2023/10/17 01:31:39;;;;;;;2.22;1.30;;;16.80;87.40;;;;;;4978179;28;20019;-82
2023/10/17 01:34:06;;;;;;;1.75;1.10;;;16.80;87.20;;;;;;4979055;28;20228;-81
2023/10/17 01:36:31;;;;;;;2.55;1.48;;;16.80;87.10;;;;;;4995470;28;20101;-81
2023/10/17 01:38:57;;;;;;;2.20;1.30;;;16.80;86.90;;;;;;4995658;28;20110;-81
2023/10/17 01:41:22;;;;;;;1.60;1.10;;;16.80;86.90;;;;;;4977995;28;20034;-81
2023/10/17 01:43:50;;;;;;;2.13;1.30;;;16.80;86.90;;;;;;4995112;28;20050;-81
2023/10/17 01:46:21;;;;;;;2.22;1.40;;;16.80;87.00;;;;;;4977757;28;20049;-82
2023/10/17 01:48:48;;;;;;;2.35;1.20;;;16.80;87.00;;;;;;4976852;28;20437;-81
2023/10/17 01:51:15;;;;;;;2.17;1.30;;;16.80;86.90;;;;;;4977729;28;20070;-82
2023/10/17 01:53:43;;;;;;;2.00;1.30;;;16.80;87.00;;;;;;4977144;28;20068;-81
2023/10/17 01:56:15;;;;;;;1.75;1.25;;;16.80;87.10;;;;;;4977767;28;20489;-81
2023/10/17 01:58:48;;;;;;;1.52;1.20;;;16.90;87.20;;;;;;4977647;28;20041;-81
2023/10/17 02:01:18;;;;;;;2.35;1.27;;;16.70;87.10;;;;;;4977737;28;20022;-81
2023/10/17 02:03:45;;;;;;;1.85;1.20;;;16.80;87.20;;;;;;4994560;28;20019;-82
2023/10/17 02:06:14;;;;;;;2.70;1.17;;;16.70;87.20;;;;;;4977701;28;20117;-81
2023/10/17 02:08:44;;;;;;;1.70;1.23;;;16.70;87.10;;;;;;4977533;28;20018;-82
2023/10/17 02:11:23;;;;;;;2.13;1.20;;;16.70;87.20;;;;;;4977516;28;20019;-81
2023/10/17 02:13:56;;;;;;;1.88;1.10;;;16.70;87.20;;;;;;4977049;28;20026;-82
2023/10/17 02:16:28;;;;;;;2.25;1.48;;;16.70;87.30;;;;;;4977305;28;20034;-81
2023/10/17 02:18:54;;;;;;;1.83;1.25;;;16.70;87.30;;;;;;4977324;28;20102;-80
2023/10/17 02:21:21;;;;;;;1.60;1.13;;;16.70;87.30;;;;;;4977326;28;20082;-81
2023/10/17 02:23:49;;;;;;;1.88;1.30;;;16.70;87.40;;;;;;4994238;28;20106;-81
2023/10/17 02:26:22;;;;;;;2.05;1.30;;;16.70;87.40;;;;;;4975507;28;20026;-79
2023/10/17 02:28:53;;;;;;;2.33;1.25;;;16.70;87.40;;;;;;4981346;28;20019;-81
2023/10/17 02:31:27;;;;;;;1.85;1.40;;;16.70;87.40;;;;;;4957482;28;20058;-81
2023/10/17 02:33:53;;;;;;;2.17;1.23;;;16.70;87.30;;;;;;4974718;28;20038;-81
2023/10/17 02:36:19;;;;;;;1.58;1.17;;;16.70;87.20;;;;;;4957806;28;20026;-81
2023/10/17 02:38:44;;;;;;;1.80;1.33;;;16.70;87.40;;;;;;4975231;28;20042;-82
2023/10/17 02:41:18;;;;;;;1.52;1.15;;;16.80;87.00;;;;;;4957495;28;20448;-80
2023/10/17 02:43:45;;;;;;;2.45;1.40;;;16.80;86.90;;;;;;4957212;28;20037;-82
2023/10/17 02:46:13;;;;;;;1.55;1.10;;;16.80;86.90;;;;;;4957527;28;20077;-81
2023/10/17 02:48:38;;;;;;;2.38;1.45;;;16.80;86.90;;;;;;4957389;28;20027;-81
2023/10/17 02:53:52;;;;;;;2.38;1.40;;;16.80;87.00;;;;;;4974495;28;20501;-82
2023/10/17 02:56:18;;;;;;;2.28;1.27;;;16.70;86.90;;;;;;4957248;28;20041;-82
2023/10/17 02:58:51;;;;;;;1.98;1.40;;;16.70;87.00;;;;;;4957751;28;20441;-81
2023/10/17 03:01:17;;;;;;;2.03;1.30;;;16.70;87.00;;;;;;4957155;28;20448;-81
2023/10/17 03:03:44;;;;;;;1.65;1.30;;;16.70;87.10;;;;;;4956841;28;20019;-81
2023/10/17 03:06:15;;;;;;;2.28;1.42;;;16.70;87.10;;;;;;4957116;28;20023;-81
2023/10/17 03:08:50;;;;;;;2.28;1.25;;;16.70;87.10;;;;;;4956939;28;20030;-82
2023/10/17 03:11:17;;;;;;;1.92;1.27;;;16.70;87.20;;;;;;4957108;28;20507;-81
2023/10/17 03:13:44;;;;;;;2.90;1.35;;;16.70;87.20;;;;;;4956969;28;20027;-81
2023/10/17 03:16:26;;;;;;;1.95;1.40;;;16.70;87.30;;;;;;4956836;28;20023;-82
2023/10/17 03:18:52;;;;;;;2.10;1.40;;;16.70;87.30;;;;;;4957003;28;20023;-82
2023/10/17 03:21:30;;;;;;;2.15;1.30;;;16.70;87.30;;;;;;4956845;28;20481;-81
2023/10/17 03:24:00;;;;;;;2.10;1.40;;;16.70;87.20;;;;;;4951893;28;20085;-82
2023/10/17 03:26:26;;;;;;;1.83;1.20;;;16.70;87.30;;;;;;4954108;28;20037;-81
2023/10/17 03:28:51;;;;;;;2.05;1.30;;;16.60;87.30;;;;;;4959341;28;20117;-81
2023/10/17 03:31:20;;;;;;;1.52;1.15;;;16.60;87.30;;;;;;4955984;28;20027;-81
2023/10/17 03:33:50;;;;;;;2.47;1.30;;;16.70;87.40;;;;;;4973169;28;20026;-80
2023/10/17 03:36:40;;;;;;;1.70;1.30;;;16.70;87.40;;;;;;4973331;28;20050;-80
2023/10/17 03:39:26;;;;;;;2.20;1.50;;;16.70;87.30;;;;;;4972528;28;20907;-81
2023/10/17 03:41:58;;;;;;;1.58;1.30;;;16.70;87.20;;;;;;4975392;28;20457;-82
2023/10/17 03:44:31;;;;;;;2.03;1.30;;;16.70;87.10;;;;;;4974632;28;20058;-80
2023/10/17 03:47:04;;;;;;;2.63;1.52;;;16.70;87.00;;;;;;4974982;28;20026;-81
2023/10/17 03:49:36;;;;;;;2.75;1.30;;;16.70;86.80;;;;;;4975328;28;20019;-81
2023/10/17 03:52:04;;;;;;;2.13;1.40;;;16.70;86.80;;;;;;4993586;28;20029;-80
2023/10/17 03:54:29;;;;;;;2.05;1.30;;;16.70;86.90;;;;;;4987002;28;20087;-83
2023/10/17 03:57:02;;;;;;;1.98;1.38;;;16.70;86.90;;;;;;4994632;28;20022;-82
2023/10/17 03:59:41;;;;;;;3.03;1.50;;;16.70;87.00;;;;;;4995464;28;20060;-82
2023/10/17 04:02:17;;;;;;;1.77;1.30;;;16.70;87.00;;;;;;4994512;28;20030;-82
2023/10/17 04:04:53;;;;;;;2.13;1.40;;;16.70;87.00;;;;;;4994095;28;20112;-83
2023/10/17 04:07:21;;;;;;;1.67;1.27;;;16.70;87.00;;;;;;4995552;28;20054;-84
2023/10/17 04:09:54;;;;;;;2.72;1.60;;;16.60;87.00;;;;;;4995682;28;20021;-85
2023/10/17 04:12:32;;;;;;;3.05;1.40;;;16.70;87.10;;;;;;4996120;28;20029;-83
2023/10/17 04:15:04;;;;;;;1.52;1.20;;;16.60;87.00;;;;;;4998575;28;20101;-83
2023/10/17 04:17:31;;;;;;;1.92;1.40;;;16.60;87.10;;;;;;4998006;28;20133;-83
2023/10/17 04:20:09;;;;;;;2.05;1.45;;;16.60;87.20;;;;;;4995391;28;20038;-82
2023/10/17 04:22:34;;;;;;;1.95;1.30;;;16.60;87.20;;;;;;4995567;28;20245;-82
2023/10/17 04:25:17;;;;;;;1.77;1.35;;;16.60;87.20;;;;;;4995309;28;20045;-83
2023/10/17 04:27:45;;;;;;;2.17;1.35;;;16.60;87.30;;;;;;4975184;28;20073;-81
2023/10/17 04:30:17;;;;;;;2.13;1.38;;;16.60;87.20;;;;;;4970659;28;20061;-82
2023/10/17 04:32:43;;;;;;;2.83;1.60;;;16.60;87.30;;;;;;5006547;28;20068;-82
2023/10/17 04:35:08;;;;;;;2.20;1.50;;;16.60;87.20;;;;;;5001632;28;20033;-83
2023/10/17 04:37:37;;;;;;;2.05;1.40;;;16.60;87.30;;;;;;4975257;28;20034;-83
2023/10/17 04:43:10;;;;;;;2.15;1.40;;;16.60;87.30;;;;;;4974085;28;20602;-83
2023/10/17 04:45:33;;;;;;;2.22;1.38;;;16.60;87.20;;;;;;4973593;28;20063;-83
2023/10/17 04:48:11;;;;;;;1.90;1.38;;;16.60;87.10;;;;;;4992584;28;20033;-83
2023/10/17 04:51:14;;;;;;;2.13;1.40;;;16.70;87.00;;;;;;5012806;28;20082;-84
2023/10/17 04:53:35;;;;;;;2.35;1.58;;;16.70;86.90;;;;;;5005491;28;20061;-84
2023/10/17 04:56:09;;;;;;;1.70;1.27;;;16.70;86.80;;;;;;4975089;28;20429;-82
2023/10/17 04:58:48;;;;;;;2.03;1.48;;;16.70;86.70;;;;;;4975047;28;20089;-81
2023/10/17 05:01:41;;;;;;;2.08;1.42;;;16.70;86.90;;;;;;4992594;28;20041;-83
2023/10/17 05:04:18;;;;;;;1.58;1.20;;;16.70;87.00;;;;;;4992151;28;20030;-82
2023/10/17 06:17:47;;;;;;;2.90;1.80;;;16.50;86.10;;;;;;5014512;28;20513;-82
2023/10/17 06:20:13;;;;;;;4.90;2.00;;;16.50;86.20;;;;;;4996581;28;20117;-82
2023/10/17 06:28:20;;;;;;;2.13;1.58;;;16.50;86.50;;;;;;5014635;28;20036;-82
2023/10/17 06:30:48;;;;;;;3.38;1.80;;;16.50;86.50;;;;;;4996126;28;20029;-82
2023/10/17 06:33:17;;;;;;;2.63;1.60;;;16.50;86.50;;;;;;4996426;28;20033;-82
2023/10/17 06:35:44;;;;;;;3.40;1.80;;;16.50;86.60;;;;;;5013364;28;20503;-82
2023/10/17 06:38:10;;;;;;;3.05;1.70;;;16.50;86.70;;;;;;4996666;28;20442;-82
2023/10/17 06:40:45;;;;;;;3.85;1.60;;;16.50;86.70;;;;;;4996444;28;20080;-82
2023/10/17 06:43:14;;;;;;;3.33;2.10;;;16.50;86.70;;;;;;5013690;28;20053;-82
2023/10/17 06:45:52;;;;;;;3.22;1.67;;;16.50;86.80;;;;;;5013767;28;20024;-82
2023/10/17 06:48:18;;;;;;;2.65;1.70;;;16.50;86.80;;;;;;4996389;28;20026;-82
2023/10/17 06:51:29;;;;;;;3.75;2.10;;;16.50;86.90;;;;;;5013754;28;20510;-81
2023/10/17 06:53:41;;;;;;;5.00;1.70;;;16.50;86.90;;;;;;5013218;28;20084;-81
2023/10/17 06:56:09;;;;;;;2.97;1.60;;;16.50;86.80;;;;;;5014049;28;20021;-81
2023/10/17 06:58:35;;;;;;;3.22;1.80;;;16.50;86.70;;;;;;4980851;28;20081;-81
2023/10/17 07:01:04;;;;;;;2.75;1.58;;;16.50;86.60;;;;;;4976657;28;20026;-82
2023/10/17 07:03:34;;;;;;;4.47;1.70;;;16.60;86.50;;;;;;4976376;28;20073;-82
2023/10/17 07:06:16;;;;;;;2.65;1.50;;;16.60;86.40;;;;;;4993832;28;20026;-82
2023/10/17 07:08:42;;;;;;;2.00;1.40;;;16.60;86.40;;;;;;4976519;28;20449;-82
2023/10/17 07:11:26;;;;;;;2.50;1.65;;;16.60;86.50;;;;;;4976686;28;20054;-81
2023/10/17 07:16:41;;;;;;;2.47;1.55;;;16.50;86.60;;;;;;4994248;28;20026;-82
2023/10/17 07:24:25;;;;;;;2.22;1.65;;;16.50;86.70;;;;;;4993504;28;20026;-82
2023/10/17 07:26:55;;;;;;;1.98;1.40;;;16.50;86.80;;;;;;4993765;28;20243;-82
2023/10/17 07:29:22;;;;;;;2.72;1.65;;;16.50;86.80;;;;;;4975623;28;20034;-82
2023/10/17 07:31:54;;;;;;;3.33;1.40;;;16.50;86.90;;;;;;4976260;28;20027;-82
2023/10/17 07:34:23;;;;;;;2.28;1.58;;;16.50;86.90;;;;;;4976959;28;20031;-82
2023/10/17 07:37:05;;;;;;;2.72;1.50;;;16.50;86.90;;;;;;4993429;28;20029;-82
2023/10/17 07:39:36;;;;;;;2.50;1.55;;;16.50;87.00;;;;;;4976088;28;20493;-82
2023/10/17 07:42:23;;;;;;;2.60;1.52;;;16.50;87.00;;;;;;4993555;28;20026;-82
2023/10/17 07:44:49;;;;;;;2.20;1.50;;;16.50;87.10;;;;;;4975725;28;20030;-82
2023/10/17 07:47:21;;;;;;;2.63;1.30;;;16.50;87.10;;;;;;4975883;28;20027;-82
2023/10/17 07:49:49;;;;;;;2.03;1.52;;;16.40;87.10;;;;;;4975877;28;20022;-82
2023/10/17 07:52:22;;;;;;;2.75;1.40;;;16.40;87.00;;;;;;4975755;28;20077;-82
2023/10/17 07:55:17;;;;;;;3.45;1.50;;;16.40;87.10;;;;;;4975614;28;20448;-82
2023/10/17 07:57:43;;;;;;;1.63;1.20;;;16.50;87.20;;;;;;4975843;28;20056;-82
2023/10/17 08:03:00;;;;;;;1.95;1.30;;;16.50;87.10;;;;;;4992986;28;20122;-81
2023/10/17 08:05:36;;;;;;;2.65;1.30;;;16.50;87.00;;;;;;4975778;28;20038;-82
2023/10/17 08:08:13;;;;;;;2.25;1.35;;;16.50;87.00;;;;;;4975673;28;20673;-82
2023/10/17 08:10:39;;;;;;;2.55;1.33;;;16.50;86.90;;;;;;4975768;28;20026;-82
2023/10/17 08:13:07;;;;;;;1.50;1.20;;;16.50;86.80;;;;;;4975448;28;20023;-82
2023/10/17 08:15:48;;;;;;;2.67;1.50;;;16.50;86.70;;;;;;4975688;28;20451;-82
2023/10/17 08:18:14;;;;;;;2.55;1.33;;;16.50;86.70;;;;;;4975764;28;20077;-82
2023/10/17 08:23:41;;;;;;;1.85;1.35;;;16.50;86.80;;;;;;4959879;28;20045;-82
2023/10/17 08:26:11;;;;;;;2.17;1.30;;;16.50;86.90;;;;;;4992973;28;20424;-82
2023/10/17 08:31:24;;;;;;;1.95;1.40;;;16.50;87.00;;;;;;4993274;28;20066;-82
2023/10/17 08:34:04;;;;;;;2.88;1.35;;;16.50;87.10;;;;;;4975407;28;20038;-83
2023/10/17 08:36:53;;;;;;;1.95;1.30;;;16.50;87.10;;;;;;4975517;28;20022;-82
2023/10/17 08:41:57;;;;;;;2.42;1.60;;;16.40;87.10;;;;;;4993024;28;20031;-82
2023/10/17 08:44:28;;;;;;;1.98;1.27;;;16.50;87.20;;;;;;4975047;28;20026;-82
2023/10/17 08:46:55;;;;;;;2.67;1.50;;;16.40;87.20;;;;;;4975341;28;20085;-82
2023/10/17 08:49:21;;;;;;;1.50;1.05;;;16.40;87.20;;;;;;4975320;28;20547;-82
2023/10/17 08:51:48;;;;;;;1.63;1.20;;;16.40;87.30;;;;;;4975162;28;20404;-82
2023/10/17 08:54:14;;;;;;;1.60;1.15;;;16.40;87.30;;;;;;4974915;28;20461;-82
2023/10/17 08:56:42;;;;;;;2.33;1.20;;;16.40;87.30;;;;;;4992833;28;20053;-82
2023/10/17 08:59:09;;;;;;;1.77;1.20;;;16.40;87.30;;;;;;4994679;28;20042;-82
2023/10/17 09:01:37;;;;;;;1.92;1.20;;;16.40;87.30;;;;;;4978797;28;20034;-82
2023/10/17 09:04:04;;;;;;;2.15;1.30;;;16.40;87.40;;;;;;4978649;28;20117;-82
2023/10/17 09:06:32;;;;;;;2.00;1.35;;;16.50;87.50;;;;;;4996173;28;20033;-82
2023/10/17 09:11:41;;;;;;;2.60;1.30;;;16.50;87.30;;;;;;4996535;28;20022;-82
2023/10/17 09:14:29;;;;;;;1.73;1.20;;;16.50;87.30;;;;;;4995836;28;20022;-82
2023/10/17 09:19:51;;;;;;;2.35;1.30;;;16.50;87.10;;;;;;4996049;28;20030;-82
2023/10/17 09:22:36;;;;;;;1.92;1.30;;;16.50;87.00;;;;;;4978437;28;20501;-82
2023/10/17 09:25:15;;;;;;;1.60;1.20;;;16.50;87.00;;;;;;4978084;28;20034;-82
2023/10/17 09:27:41;;;;;;;2.67;1.38;;;16.50;87.10;;;;;;4978268;28;20033;-82
2023/10/17 09:30:11;;;;;;;1.60;1.13;;;16.50;87.10;;;;;;4977948;28;20018;-82
2023/10/17 09:32:40;;;;;;;2.97;1.38;;;16.50;87.10;;;;;;4978081;28;20022;-81
2023/10/17 09:35:19;;;;;;;1.77;1.25;;;16.50;87.20;;;;;;4978081;28;20110;-82
2023/10/17 09:37:50;;;;;;;1.60;1.15;;;16.50;87.20;;;;;;4978016;28;20033;-82
2023/10/17 09:40:33;;;;;;;2.28;1.38;;;16.50;87.30;;;;;;4978257;28;20500;-82
2023/10/17 09:43:00;;;;;;;2.08;1.25;;;16.40;87.30;;;;;;4995152;28;20034;-81
2023/10/17 09:45:33;;;;;;;1.77;1.30;;;16.40;87.30;;;;;;4977800;28;20054;-82
2023/10/17 09:48:04;;;;;;;1.83;1.35;;;16.40;87.40;;;;;;4978234;28;20027;-82
2023/10/17 09:50:32;;;;;;;1.90;1.25;;;16.50;87.50;;;;;;4977982;28;20029;-82
2023/10/17 09:53:01;;;;;;;1.75;1.13;;;16.40;87.50;;;;;;4977413;28;20373;-82
2023/10/17 09:55:28;;;;;;;2.70;1.58;;;16.40;87.50;;;;;;4977870;28;20143;-82
2023/10/17 09:57:59;;;;;;;2.33;1.30;;;16.50;87.60;;;;;;4978000;28;20030;-82
2023/10/17 10:00:34;;;;;;;2.22;1.50;;;16.40;87.60;;;;;;4977950;28;20026;-81
2023/10/17 10:03:00;;;;;;;2.30;1.50;;;16.40;87.60;;;;;;4994936;28;20492;-82
2023/10/17 10:05:29;;;;;;;1.45;1.10;;;16.40;87.60;;;;;;4977591;28;20400;-82
2023/10/17 10:08:00;;;;;;;2.70;1.50;;;16.40;87.60;;;;;;4977703;28;20448;-82
2023/10/17 10:10:55;;;;;;;2.30;1.48;;;16.40;87.70;;;;;;4976478;28;20022;-82
2023/10/17 10:13:21;;;;;;;2.15;1.30;;;16.50;87.70;;;;;;4977234;28;20026;-82
2023/10/17 10:16:01;;;;;;;2.47;1.42;;;16.40;87.60;;;;;;4977498;28;20030;-82
2023/10/17 10:18:35;;;;;;;3.03;1.63;;;16.40;87.60;;;;;;4977344;28;20455;-82
2023/10/17 10:21:07;;;;;;;2.20;1.40;;;16.50;87.60;;;;;;4977475;28;20121;-82
2023/10/17 10:23:34;;;;;;;;;;;16.50;87.50;;;;;;4994859;28;20018;-82
2023/10/17 10:26:14;;;;;;;1.95;1.30;;;16.50;87.40;;;;;;4994728;28;19967;-82
2023/10/17 10:28:43;;;;;;;3.30;1.60;;;16.50;87.30;;;;;;4977071;28;20073;-81
2023/10/17 10:31:27;;;;;;;2.47;1.50;;;16.50;87.30;;;;;;4977223;28;20030;-82
2023/10/17 10:33:54;;;;;;;2.25;1.50;;;16.50;87.20;;;;;;4976888;28;20022;-82
2023/10/17 10:36:22;;;;;;;2.70;1.50;;;16.50;87.20;;;;;;4977048;28;20061;-81
2023/10/17 10:38:47;;;;;;;1.85;1.27;;;16.50;87.30;;;;;;4977211;28;20432;-82
2023/10/17 10:41:18;;;;;;;2.00;1.30;;;16.50;87.30;;;;;;4994471;28;20019;-82
2023/10/17 10:43:48;;;;;;;3.13;1.60;;;16.50;87.30;;;;;;4994131;28;20030;-81
2023/10/17 10:46:15;;;;;;;2.20;1.38;;;16.50;87.40;;;;;;4976951;28;20564;-82
2023/10/17 10:48:56;;;;;;;2.47;1.42;;;16.50;87.40;;;;;;4976820;28;20033;-82
2023/10/17 10:51:24;;;;;;;2.78;1.60;;;16.50;87.30;;;;;;4976795;28;20117;-82
2023/10/17 10:53:56;;;;;;;2.58;1.50;;;16.50;87.40;;;;;;4993767;28;20457;-82
2023/10/17 10:56:22;;;;;;;;;;;16.50;87.40;;;;;;4977320;28;20054;-82
2023/10/17 10:58:53;;;;;;;2.75;1.63;;;16.50;87.40;;;;;;4976622;28;20650;-82
2023/10/17 11:01:20;;;;;;;2.25;1.50;;;16.50;87.50;;;;;;4976635;28;20034;-82
2023/10/17 11:03:47;;;;;;;2.08;1.40;;;16.50;87.40;;;;;;4976357;28;20073;-82
2023/10/17 11:06:14;;;;;;;2.22;1.40;;;16.60;87.40;;;;;;4976459;28;20054;-82
2023/10/17 11:08:46;;;;;;;2.72;1.50;;;16.60;87.20;;;;;;4976339;28;20033;-82
2023/10/17 11:11:16;;;;;;;2.30;1.40;;;16.60;87.10;;;;;;4994036;28;20084;-82
2023/10/17 11:13:56;;;;;;;2.20;1.40;;;16.70;87.10;;;;;;4976513;28;20057;-82
2023/10/17 11:16:26;;;;;;;2.80;1.40;;;16.70;87.10;;;;;;4976487;28;20034;-82
2023/10/17 11:18:52;;;;;;;2.30;1.40;;;16.60;87.10;;;;;;4976445;28;20092;-82
2023/10/17 11:21:20;;;;;;;2.47;1.50;;;16.70;87.10;;;;;;4976137;28;20477;-82
2023/10/17 11:23:52;;;;;;;2.30;1.30;;;16.70;87.20;;;;;;4993345;28;20026;-82
2023/10/17 11:26:23;;;;;;;2.45;1.40;;;16.70;87.20;;;;;;4977020;28;20030;-82
2023/10/17 11:28:51;;;;;;;2.80;1.50;;;16.70;87.20;;;;;;4993353;28;20030;-82
2023/10/17 11:31:27;;;;;;;2.10;1.40;;;16.70;87.10;;;;;;4976189;28;20049;-82
2023/10/17 11:33:58;;;;;;;2.40;1.40;;;16.70;87.00;;;;;;4993373;28;20453;-82
2023/10/17 11:36:25;;;;;;;3.38;1.83;;;16.70;87.00;;;;;;4976109;28;20022;-82
2023/10/17 11:38:58;;;;;;;2.30;1.50;;;16.70;86.90;;;;;;4976099;28;20052;-81
2023/10/17 11:41:57;;;;;;;2.60;1.50;;;16.70;86.90;;;;;;4975971;28;20022;-81
2023/10/17 11:44:15;;;;;;;2.80;1.52;;;16.70;86.90;;;;;;4990100;28;20037;-82
2023/10/17 11:47:02;;;;;;;2.75;1.50;;;16.70;87.00;;;;;;4975984;28;20026;-82
2023/10/17 11:49:31;;;;;;;2.78;1.70;;;16.70;87.20;;;;;;4992780;28;20049;-82
2023/10/17 11:52:02;;;;;;;2.95;1.77;;;16.60;87.20;;;;;;4993316;28;20551;-82
2023/10/17 11:54:29;;;;;;;2.63;1.50;;;16.60;87.20;;;;;;4975677;28;20042;-82
2023/10/17 11:56:55;;;;;;;2.60;1.50;;;16.60;87.30;;;;;;4993315;28;20034;-82
2023/10/17 11:59:21;;;;;;;3.25;1.58;;;16.60;87.40;;;;;;4977108;28;20480;-82
2023/10/17 12:01:48;;;;;;;2.97;1.60;;;16.60;87.40;;;;;;4993162;28;20103;-82
2023/10/17 12:04:16;;;;;;;2.33;1.50;;;16.60;87.50;;;;;;4975573;28;20034;-83
2023/10/17 12:06:48;;;;;;;2.80;1.40;;;16.60;87.50;;;;;;4975832;28;20073;-82
2023/10/17 12:09:23;;;;;;;2.58;1.50;;;16.60;87.50;;;;;;4975894;28;20022;-82
2023/10/17 12:11:54;;;;;;;2.80;1.75;;;16.60;87.60;;;;;;4975778;28;20045;-82
2023/10/17 12:14:20;;;;;;;3.85;1.80;;;16.60;87.60;;;;;;4975545;28;20030;-82
2023/10/17 12:16:55;;;;;;;2.53;1.38;;;16.60;87.60;;;;;;4975617;28;20030;-82
2023/10/17 12:19:21;;;;;;;2.10;1.38;;;16.60;87.50;;;;;;4993155;28;20117;-82
2023/10/17 12:21:48;;;;;;;3.08;1.70;;;16.60;87.40;;;;;;4975731;28;20106;-82
2023/10/17 12:24:20;;;;;;;1.95;1.40;;;16.60;87.40;;;;;;4992658;28;20023;-82
2023/10/17 12:26:46;;;;;;;;;;;16.60;87.30;;;;;;4976049;28;20060;-82
2023/10/17 12:29:12;;;;;;;2.50;1.60;;;16.70;87.20;;;;;;4992805;28;20438;-82
2023/10/17 12:31:39;;;;;;;2.25;1.30;;;16.70;87.40;;;;;;4975532;28;20109;-82
2023/10/17 12:34:07;;;;;;;4.07;2.03;;;16.70;87.40;;;;;;4977274;28;20105;-82
2023/10/17 12:36:36;;;;;;;3.10;1.60;;;16.70;87.30;;;;;;4979302;28;20027;-82
2023/10/17 12:39:03;;;;;;;3.45;1.60;;;16.70;87.20;;;;;;4979759;28;20026;-82
2023/10/17 12:41:30;;;;;;;2.05;1.38;;;16.80;87.00;;;;;;4979327;28;20491;-81
2023/10/17 12:43:55;;;;;;;2.42;1.42;;;16.80;86.80;;;;;;4978965;28;20023;-82
2023/10/17 12:46:21;;;;;;;2.42;1.40;;;16.80;86.60;;;;;;4996495;28;20042;-82
2023/10/17 12:48:47;;;;;;;3.10;1.60;;;16.80;86.50;;;;;;4979173;28;20097;-82
2023/10/17 12:51:12;;;;;;;2.67;1.60;;;16.80;86.50;;;;;;4979015;28;20026;-82
2023/10/17 12:53:41;;;;;;;2.70;1.60;;;16.80;86.60;;;;;;4978622;28;20081;-82
2023/10/17 12:56:11;;;;;;;2.55;1.40;;;16.80;86.60;;;;;;4978995;28;20480;-82
2023/10/17 12:58:36;;;;;;;3.13;1.40;;;16.80;86.80;;;;;;4978610;28;20050;-82
2023/10/17 13:01:06;;;;;;;3.65;1.50;;;16.80;86.80;;;;;;4979123;28;20065;-82
2023/10/17 13:03:36;;;;;;;2.85;1.55;;;16.80;86.90;;;;;;4978465;28;20030;-82
2023/10/17 13:06:02;;;;;;;2.72;1.60;;;16.80;86.90;;;;;;4978921;28;20030;-82
2023/10/17 13:08:28;;;;;;;2.70;1.70;;;16.80;86.90;;;;;;4978661;28;20077;-82
2023/10/17 13:10:55;;;;;;;3.08;1.63;;;16.80;87.00;;;;;;4978627;28;20022;-82
2023/10/17 13:13:21;;;;;;;2.78;1.70;;;16.80;87.10;;;;;;4978450;28;20022;-82
2023/10/17 13:15:47;;;;;;;3.22;1.55;;;16.80;87.20;;;;;;4978641;28;20039;-82
2023/10/17 13:18:14;;;;;;;3.03;1.60;;;16.80;87.10;;;;;;4978615;28;20484;-82
2023/10/17 13:20:48;;;;;;;2.80;1.70;;;16.70;87.20;;;;;;4996229;28;20027;-81
2023/10/17 13:23:16;;;;;;;3.05;1.67;;;16.70;87.20;;;;;;4995859;28;20113;-82
2023/10/17 13:25:42;;;;;;;2.75;1.50;;;16.70;87.20;;;;;;4978696;28;20089;-83
2023/10/17 13:28:07;;;;;;;2.58;1.65;;;16.70;87.20;;;;;;4978351;28;20026;-82
2023/10/17 13:30:33;;;;;;;2.58;1.65;;;16.70;87.30;;;;;;4978293;28;20534;-82
2023/10/17 13:32:58;;;;;;;2.60;1.60;;;16.70;87.30;;;;;;4978136;28;20023;-82
2023/10/17 13:35:24;;;;;;;1.88;1.42;;;16.70;87.30;;;;;;4979195;28;20026;-82
2023/10/17 13:37:54;;;;;;;3.03;1.60;;;16.70;87.40;;;;;;4978332;28;20030;-82
2023/10/17 13:40:22;;;;;;;2.88;1.60;;;16.70;87.40;;;;;;4978228;28;20034;-82
2023/10/17 13:42:50;;;;;;;3.25;1.70;;;16.80;87.40;;;;;;4978072;28;20077;-82
2023/10/17 13:45:17;;;;;;;2.72;1.50;;;16.80;87.20;;;;;;4977834;28;20023;-82
2023/10/17 13:47:42;;;;;;;2.83;1.50;;;16.80;87.00;;;;;;4977977;28;20121;-82
2023/10/17 13:50:13;;;;;;;3.15;1.60;;;16.90;86.90;;;;;;4978096;28;20065;-82
2023/10/17 13:52:41;;;;;;;3.20;1.60;;;16.80;86.70;;;;;;4977773;28;20018;-82
2023/10/17 13:55:09;;;;;;;2.53;1.50;;;16.90;86.80;;;;;;4977676;28;20042;-82
2023/10/17 13:57:35;;;;;;;2.70;1.40;;;16.90;86.90;;;;;;4977852;28;20492;-82
2023/10/17 14:00:05;;;;;;;3.20;1.73;;;16.80;86.90;;;;;;4995407;28;20396;-82
2023/10/17 14:02:31;;;;;;;2.58;1.33;;;16.80;87.00;;;;;;4977850;28;20429;-82
2023/10/17 14:04:57;;;;;;;2.88;1.70;;;16.80;87.20;;;;;;4995071;28;20113;-82
2023/10/17 14:07:22;;;;;;;3.10;1.40;;;16.70;87.30;;;;;;4977604;28;20014;-84
2023/10/17 14:09:50;;;;;;;3.17;1.70;;;16.80;87.40;;;;;;4977565;28;20469;-83
2023/10/17 14:12:17;;;;;;;3.70;1.65;;;16.70;87.40;;;;;;4986767;28;20569;-83
2023/10/17 14:14:42;;;;;;;2.63;1.50;;;16.70;87.60;;;;;;4958138;28;20038;-83
2023/10/17 14:17:08;;;;;;;2.45;1.60;;;16.70;87.70;;;;;;4975740;28;20030;-82
2023/10/17 14:19:37;;;;;;;2.45;1.50;;;16.70;87.80;;;;;;4958692;28;20031;-83
2023/10/17 14:22:21;;;;;;;2.88;1.63;;;16.70;87.80;;;;;;4958174;28;20061;-81
2023/10/17 14:24:52;;;;;;;3.05;1.63;;;16.70;87.80;;;;;;4957445;28;20113;-82
2023/10/17 14:27:29;;;;;;;2.90;1.60;;;16.70;87.90;;;;;;4961573;28;20030;-82
2023/10/17 14:30:05;;;;;;;3.38;1.75;;;16.70;87.90;;;;;;4996926;28;20028;-81
2023/10/17 14:32:31;;;;;;;2.67;1.50;;;16.60;88.40;;;;;;4996943;28;20026;-82
2023/10/17 14:34:57;;;;;;;2.60;1.40;;;16.60;87.90;;;;;;4996726;28;20163;-82
2023/10/17 14:37:23;;;;;;;2.85;1.60;;;16.60;87.90;;;;;;4996421;28;20026;-82
2023/10/17 14:39:53;;;;;;;4.35;2.00;;;16.60;87.90;;;;;;5013746;28;20034;-83
2023/10/17 14:42:19;;;;;;;2.63;1.60;;;16.70;88.00;;;;;;4996487;28;20428;-83
2023/10/17 14:44:45;;;;;;;2.50;1.50;;;16.60;88.00;;;;;;4995865;28;20550;-80
2023/10/17 14:47:16;;;;;;;2.90;1.50;;;16.60;88.00;;;;;;4988601;28;20120;-82
2023/10/17 14:49:42;;;;;;;2.23;1.30;;;16.60;87.90;;;;;;4996372;28;20125;-82
2023/10/17 14:52:08;;;;;;;2.13;1.20;;;16.60;87.90;;;;;;4996170;28;20352;-82
2023/10/17 14:54:34;;;;;;;1.70;1.30;;;16.70;87.90;;;;;;5013412;28;20041;-81
2023/10/17 14:57:06;;;;;;;2.75;1.50;;;16.70;87.70;;;;;;4995535;28;20555;-82
2023/10/17 14:59:32;;;;;;;2.85;1.50;;;16.70;87.60;;;;;;4995959;28;20100;-80